Time;durP1;ratioP1;P1;durP2;ratioP2;P2;SDS_P1;SDS_P2;PMS_P1;PMS_P2;Temp;Humidity;BMP_temperature;BMP_pressure;BME280_temperature;BME280_humidity;BME280_pressure;Samples;Min_cycle;Max_cycle;Signal;HPM_P1;HPM_P2
2021/06/12 00:00:29;;;;;;;4.03;1.65;;;24.60;52.80;;;;;;5033489;28;20025;-67
2021/06/12 00:02:56;;;;;;;3.38;1.75;;;24.60;52.70;;;;;;5033251;28;20485;-67
2021/06/12 00:05:21;;;;;;;2.28;1.42;;;24.50;52.80;;;;;;5033349;28;20029;-66
2021/06/12 00:07:47;;;;;;;3.90;1.85;;;24.50;52.80;;;;;;5033171;28;20112;-66
2021/06/12 00:10:19;;;;;;;3.33;1.80;;;24.50;52.80;;;;;;5033269;28;20075;-66
2021/06/12 00:12:44;;;;;;;2.92;1.60;;;24.50;52.90;;;;;;5033291;28;20025;-66
2021/06/12 00:15:12;;;;;;;3.65;1.80;;;24.50;52.90;;;;;;5032810;28;20101;-67
2021/06/12 00:17:38;;;;;;;2.95;1.63;;;24.50;52.90;;;;;;5033012;28;20053;-66
2021/06/12 00:20:09;;;;;;;3.90;2.08;;;24.50;52.90;;;;;;5033230;28;20389;-66
2021/06/12 00:22:35;;;;;;;6.05;2.15;;;24.50;53.00;;;;;;5033309;28;20033;-66
2021/06/12 00:25:01;;;;;;;3.08;1.50;;;24.50;53.00;;;;;;5033030;28;20037;-66
2021/06/12 00:27:26;;;;;;;3.40;1.83;;;24.50;53.00;;;;;;5032948;28;20432;-66
2021/06/12 00:29:52;;;;;;;3.83;1.88;;;24.50;53.00;;;;;;5032944;28;20025;-66
2021/06/12 00:32:18;;;;;;;3.45;1.85;;;24.50;53.00;;;;;;5032888;28;20562;-66
2021/06/12 00:34:43;;;;;;;4.70;1.75;;;24.50;53.10;;;;;;5033016;28;20025;-66
2021/06/12 00:37:09;;;;;;;3.33;1.65;;;24.40;53.10;;;;;;5033035;28;20377;-66
2021/06/12 00:39:35;;;;;;;5.40;2.35;;;24.50;53.10;;;;;;5033021;28;20025;-66
2021/06/12 00:42:00;;;;;;;3.15;1.70;;;24.40;53.10;;;;;;5033316;28;20022;-66
2021/06/12 00:44:26;;;;;;;3.95;1.77;;;24.40;53.10;;;;;;5032822;28;20077;-66
2021/06/12 00:46:51;;;;;;;7.13;2.22;;;24.40;53.20;;;;;;5032952;28;20033;-66
2021/06/12 00:49:19;;;;;;;3.90;2.08;;;24.40;53.20;;;;;;5033292;28;20030;-66
2021/06/12 00:51:45;;;;;;;3.42;1.67;;;24.40;53.20;;;;;;5033244;28;20052;-66
2021/06/12 00:54:10;;;;;;;3.13;1.70;;;24.40;53.20;;;;;;5040449;28;20029;-66
2021/06/12 00:56:36;;;;;;;4.03;1.80;;;24.30;53.20;;;;;;5033823;28;20481;-66
2021/06/12 00:59:02;;;;;;;3.30;1.73;;;24.40;53.20;;;;;;5033430;28;20550;-66
2021/06/12 01:01:28;;;;;;;3.10;1.90;;;24.40;53.30;;;;;;5031754;28;20374;-66
2021/06/12 01:03:53;;;;;;;3.78;1.80;;;24.30;53.30;;;;;;5033324;28;20025;-66
2021/06/12 01:06:22;;;;;;;3.88;1.90;;;24.30;53.30;;;;;;5032849;28;20497;-66
2021/06/12 01:08:48;;;;;;;3.55;1.90;;;24.30;53.30;;;;;;5032628;28;20029;-66
2021/06/12 01:11:15;;;;;;;3.50;1.70;;;24.30;53.30;;;;;;5032811;28;20032;-66
2021/06/12 01:14:02;;;;;;;3.97;1.70;;;24.30;53.30;;;;;;5032603;28;20037;-66
2021/06/12 01:16:34;;;;;;;3.97;1.80;;;24.30;53.30;;;;;;5032594;28;20022;-66
2021/06/12 01:19:09;;;;;;;3.38;2.08;;;24.30;53.30;;;;;;5032693;28;20025;-66
2021/06/12 01:21:42;;;;;;;3.95;1.92;;;24.30;53.40;;;;;;5032740;28;20022;-66
2021/06/12 01:24:20;;;;;;;2.88;1.63;;;24.30;53.30;;;;;;5032848;28;20053;-66
2021/06/12 01:27:16;;;;;;;3.97;1.95;;;24.30;53.40;;;;;;5033783;28;20033;-66
2021/06/12 01:30:02;;;;;;;4.70;2.10;;;24.30;53.40;;;;;;5036473;28;20021;-67
2021/06/12 01:32:30;;;;;;;4.20;2.22;;;24.20;53.40;;;;;;5036426;28;20071;-66
2021/06/12 01:34:58;;;;;;;3.70;1.38;;;24.30;53.50;;;;;;5036338;28;20424;-66
2021/06/12 01:37:25;;;;;;;3.85;1.52;;;24.20;53.50;;;;;;5036391;28;20022;-66
2021/06/12 01:39:52;;;;;;;3.95;1.70;;;24.20;53.50;;;;;;5036313;28;20034;-66
2021/06/12 01:42:19;;;;;;;4.20;1.73;;;24.20;53.50;;;;;;5036361;28;20053;-66
2021/06/12 01:44:46;;;;;;;3.55;1.55;;;24.20;53.50;;;;;;5036125;28;20053;-66
2021/06/12 01:47:13;;;;;;;3.97;2.00;;;24.20;53.50;;;;;;5036053;28;20484;-67
2021/06/12 01:49:41;;;;;;;3.80;1.90;;;24.20;53.50;;;;;;5036087;28;20026;-66
2021/06/12 01:52:07;;;;;;;4.05;2.15;;;24.20;53.60;;;;;;5036161;28;20029;-66
2021/06/12 01:54:34;;;;;;;5.05;1.90;;;24.20;53.60;;;;;;5036076;28;20029;-66
2021/06/12 01:57:01;;;;;;;4.50;2.00;;;24.20;53.50;;;;;;5036026;28;20021;-66
2021/06/12 01:59:28;;;;;;;3.83;1.92;;;24.20;53.50;;;;;;5036124;28;20048;-66
2021/06/12 02:01:58;;;;;;;3.33;1.67;;;24.20;53.60;;;;;;5034740;28;20142;-67
2021/06/12 02:04:25;;;;;;;4.28;2.35;;;24.20;53.60;;;;;;5040789;28;20052;-67
2021/06/12 02:06:51;;;;;;;4.13;2.10;;;24.20;53.60;;;;;;5044739;28;20033;-67
2021/06/12 02:09:18;;;;;;;3.78;1.70;;;24.20;53.60;;;;;;5038069;28;20033;-66
2021/06/12 02:11:45;;;;;;;3.85;2.10;;;24.10;53.60;;;;;;5036638;28;20021;-66
2021/06/12 02:14:13;;;;;;;4.18;2.13;;;24.20;53.70;;;;;;5036006;28;20057;-67
2021/06/12 02:16:38;;;;;;;3.88;1.80;;;24.10;53.70;;;;;;5036245;28;20091;-67
2021/06/12 02:19:05;;;;;;;2.60;1.52;;;24.20;53.70;;;;;;5034865;28;20037;-66
2021/06/12 02:21:35;;;;;;;4.22;1.73;;;24.10;53.70;;;;;;5035614;28;20021;-67
2021/06/12 02:24:01;;;;;;;3.35;1.83;;;24.10;53.70;;;;;;5035983;28;20026;-67
2021/06/12 02:26:28;;;;;;;3.70;1.90;;;24.10;53.80;;;;;;5036423;28;20021;-67
2021/06/12 02:28:57;;;;;;;5.40;1.90;;;24.10;53.80;;;;;;5039260;28;20029;-68
2021/06/12 02:31:28;;;;;;;3.85;1.83;;;24.10;53.80;;;;;;5046121;28;20018;-69
2021/06/12 02:33:54;;;;;;;4.80;1.60;;;24.10;53.80;;;;;;5046610;28;20030;-68
2021/06/12 02:36:19;;;;;;;3.88;1.75;;;24.10;53.80;;;;;;5046713;28;20029;-68
2021/06/12 02:38:46;;;;;;;3.42;1.90;;;24.10;53.90;;;;;;5045373;28;20036;-68
2021/06/12 02:41:12;;;;;;;3.75;1.73;;;24.00;53.90;;;;;;5048666;28;20445;-66
2021/06/12 02:43:38;;;;;;;3.53;2.00;;;24.00;53.90;;;;;;5046189;28;20085;-67
2021/06/12 02:46:08;;;;;;;4.60;1.58;;;24.00;53.90;;;;;;5045199;28;20032;-67
2021/06/12 02:48:36;;;;;;;3.13;1.70;;;24.10;54.00;;;;;;5043721;28;20120;-66
2021/06/12 02:51:02;;;;;;;3.03;1.75;;;24.00;54.00;;;;;;5035129;28;20428;-66
2021/06/12 02:53:33;;;;;;;2.90;1.55;;;24.00;54.00;;;;;;5034752;28;20176;-66
2021/06/12 02:56:01;;;;;;;4.95;2.28;;;24.00;54.00;;;;;;5034621;28;20042;-66
2021/06/12 02:58:27;;;;;;;6.20;2.10;;;24.00;54.00;;;;;;5034629;28;20064;-66
2021/06/12 03:00:55;;;;;;;3.58;1.98;;;24.00;54.10;;;;;;5035080;28;20039;-66
2021/06/12 03:03:21;;;;;;;4.18;1.98;;;24.00;54.10;;;;;;5034653;28;20036;-67
2021/06/12 03:05:58;;;;;;;4.25;1.80;;;24.00;54.10;;;;;;5034506;28;20030;-67
2021/06/12 03:08:30;;;;;;;4.80;2.05;;;24.00;54.00;;;;;;5034323;28;20091;-67
2021/06/12 03:10:58;;;;;;;3.92;1.85;;;24.00;54.10;;;;;;5034691;28;20029;-66
2021/06/12 03:13:27;;;;;;;3.42;1.65;;;24.00;54.20;;;;;;5034312;28;20477;-67
2021/06/12 03:15:55;;;;;;;3.92;1.83;;;24.00;54.20;;;;;;5034332;28;20393;-66
2021/06/12 03:18:23;;;;;;;3.13;1.40;;;23.90;54.30;;;;;;5034274;28;20068;-67
2021/06/12 03:20:50;;;;;;;4.15;1.77;;;23.90;54.30;;;;;;5034126;28;20473;-66
2021/06/12 03:23:17;;;;;;;3.45;1.67;;;23.90;54.40;;;;;;5034214;28;20037;-66
2021/06/12 03:25:42;;;;;;;4.55;2.28;;;23.90;54.40;;;;;;5034270;28;20025;-67
2021/06/12 03:28:08;;;;;;;3.92;1.80;;;23.90;54.60;;;;;;5034028;28;20102;-67
2021/06/12 03:30:34;;;;;;;3.33;1.70;;;23.90;54.50;;;;;;5033966;28;20060;-67
2021/06/12 03:33:01;;;;;;;2.58;1.63;;;23.90;54.60;;;;;;5033868;28;20026;-67
2021/06/12 03:35:28;;;;;;;4.10;1.80;;;23.90;54.60;;;;;;5033855;28;20024;-66
2021/06/12 03:37:54;;;;;;;4.80;2.03;;;23.90;54.70;;;;;;5034245;28;20024;-67
2021/06/12 03:40:21;;;;;;;3.50;1.80;;;23.90;54.70;;;;;;5034034;28;20030;-67
2021/06/12 03:42:47;;;;;;;3.72;1.80;;;23.90;54.70;;;;;;5049141;28;20032;-66
2021/06/12 03:45:15;;;;;;;3.65;1.85;;;23.80;54.80;;;;;;5033586;28;20055;-67
2021/06/12 03:47:42;;;;;;;3.35;1.67;;;23.80;54.70;;;;;;5033551;28;20499;-67
2021/06/12 03:50:10;;;;;;;5.38;1.70;;;23.90;54.70;;;;;;5033234;28;20022;-67
2021/06/12 03:52:37;;;;;;;4.00;1.83;;;23.80;54.70;;;;;;5033561;28;20517;-67
2021/06/12 03:55:04;;;;;;;5.03;1.88;;;23.80;54.80;;;;;;5033528;28;20018;-67
2021/06/12 03:57:30;;;;;;;3.13;1.55;;;23.80;54.80;;;;;;5033528;28;20385;-67
2021/06/12 03:59:56;;;;;;;3.45;1.60;;;23.80;54.90;;;;;;5032172;28;20053;-67
2021/06/12 04:02:23;;;;;;;3.75;2.00;;;23.80;54.80;;;;;;5033498;28;20072;-67
2021/06/12 04:04:49;;;;;;;3.22;1.63;;;23.80;55.00;;;;;;5033566;28;20067;-67
2021/06/12 04:07:17;;;;;;;2.83;1.75;;;23.80;54.90;;;;;;5033551;28;20041;-66
2021/06/12 04:09:43;;;;;;;4.15;1.80;;;23.80;54.90;;;;;;5033341;28;20017;-67
2021/06/12 04:12:09;;;;;;;3.65;1.63;;;23.80;54.80;;;;;;5033293;28;20484;-67
2021/06/12 04:14:34;;;;;;;3.13;1.40;;;23.80;54.90;;;;;;5033255;28;20389;-67
2021/06/12 04:17:01;;;;;;;3.28;1.70;;;23.70;54.90;;;;;;5033087;28;20018;-66
2021/06/12 04:19:27;;;;;;;4.63;1.80;;;23.80;54.90;;;;;;5033369;28;20115;-67
2021/06/12 04:21:53;;;;;;;4.03;1.80;;;23.80;55.00;;;;;;5033321;28;20069;-67
2021/06/12 04:24:18;;;;;;;3.95;2.03;;;23.80;54.90;;;;;;5033014;28;20064;-67
2021/06/12 04:26:44;;;;;;;3.67;1.63;;;23.80;54.90;;;;;;5033012;28;20037;-67
2021/06/12 04:29:09;;;;;;;3.80;1.85;;;23.80;54.90;;;;;;5033046;28;20080;-67
2021/06/12 04:31:35;;;;;;;2.90;1.60;;;23.80;54.90;;;;;;5033029;28;20524;-66
2021/06/12 04:34:00;;;;;;;3.90;1.88;;;23.80;54.90;;;;;;5033198;28;20416;-66
2021/06/12 04:36:26;;;;;;;3.22;1.60;;;23.80;54.90;;;;;;5032993;28;20029;-67
2021/06/12 04:38:51;;;;;;;5.30;1.63;;;23.70;55.00;;;;;;5033070;28;20022;-67
2021/06/12 04:41:17;;;;;;;2.20;1.50;;;23.70;54.90;;;;;;5032923;28;20037;-67
2021/06/12 04:43:43;;;;;;;3.42;1.83;;;23.70;54.90;;;;;;5032634;28;20057;-67
2021/06/12 04:46:08;;;;;;;3.25;1.75;;;23.80;54.80;;;;;;5032875;28;20040;-66
2021/06/12 04:48:34;;;;;;;3.75;1.77;;;23.70;54.80;;;;;;5032842;28;20073;-66
2021/06/12 04:50:59;;;;;;;3.95;2.00;;;23.70;54.90;;;;;;5032932;28;20044;-67
2021/06/12 04:53:25;;;;;;;3.25;1.65;;;23.70;54.80;;;;;;5032922;28;20056;-66
2021/06/12 04:55:50;;;;;;;4.20;1.65;;;23.70;54.80;;;;;;5032898;28;20033;-67
2021/06/12 04:58:17;;;;;;;3.50;1.50;;;23.80;54.70;;;;;;5032913;28;20449;-67
2021/06/12 05:00:43;;;;;;;3.38;1.60;;;23.70;54.80;;;;;;5031618;28;20521;-67
2021/06/12 05:03:08;;;;;;;4.95;2.08;;;23.70;54.80;;;;;;5036776;28;20416;-67
2021/06/12 05:05:34;;;;;;;4.05;1.95;;;23.70;54.80;;;;;;5042092;28;20022;-67
2021/06/12 05:07:59;;;;;;;3.63;1.65;;;23.80;54.70;;;;;;5045831;28;20068;-67
2021/06/12 05:10:25;;;;;;;3.40;1.65;;;23.70;54.80;;;;;;5038552;28;20026;-66
2021/06/12 05:12:51;;;;;;;3.58;1.40;;;23.70;54.70;;;;;;5037482;28;20469;-67
2021/06/12 05:15:17;;;;;;;4.07;2.00;;;23.70;54.80;;;;;;5039722;28;20028;-67
2021/06/12 05:17:43;;;;;;;4.20;1.95;;;23.70;54.70;;;;;;5036954;28;20025;-67
2021/06/12 05:20:10;;;;;;;4.30;1.80;;;23.70;54.80;;;;;;5036983;28;20026;-67
2021/06/12 05:22:36;;;;;;;3.28;1.35;;;23.80;54.70;;;;;;5036749;28;20037;-66
2021/06/12 05:25:02;;;;;;;3.35;1.63;;;23.70;54.70;;;;;;5036973;28;20079;-66
2021/06/12 05:27:28;;;;;;;3.88;1.52;;;23.70;54.60;;;;;;5036818;28;20401;-66
2021/06/12 05:29:53;;;;;;;2.47;1.52;;;23.70;54.60;;;;;;5036695;28;20018;-67
2021/06/12 05:32:19;;;;;;;4.93;1.65;;;23.70;54.60;;;;;;5036636;28;20044;-66
2021/06/12 05:34:45;;;;;;;3.78;1.60;;;23.70;54.60;;;;;;5037020;28;20024;-66
2021/06/12 05:37:11;;;;;;;3.67;1.63;;;23.70;54.70;;;;;;5036657;28;20021;-67
2021/06/12 05:39:37;;;;;;;4.53;1.42;;;23.70;54.60;;;;;;5036906;28;20080;-66
2021/06/12 05:42:03;;;;;;;3.63;1.83;;;23.80;54.60;;;;;;5036440;28;20017;-67
2021/06/12 05:44:28;;;;;;;4.75;1.88;;;23.80;54.60;;;;;;5036372;28;20064;-66
2021/06/12 05:46:54;;;;;;;2.67;1.50;;;23.70;54.70;;;;;;5036333;28;20021;-66
2021/06/12 05:49:20;;;;;;;4.38;1.73;;;23.80;54.60;;;;;;5036521;28;20037;-67
2021/06/12 05:51:46;;;;;;;4.05;1.67;;;23.70;54.60;;;;;;5036246;28;20388;-66
2021/06/12 05:54:12;;;;;;;4.43;1.80;;;23.80;54.60;;;;;;5036260;28;20029;-66
2021/06/12 05:56:38;;;;;;;3.00;1.40;;;23.80;54.50;;;;;;5036153;28;20025;-67
2021/06/12 05:59:04;;;;;;;5.72;1.70;;;23.80;54.40;;;;;;5036059;28;20358;-66
2021/06/12 06:01:29;;;;;;;3.45;1.75;;;23.80;54.50;;;;;;5036064;28;20346;-66
2021/06/12 06:03:55;;;;;;;3.70;1.75;;;23.80;54.50;;;;;;5036013;28;20103;-67
2021/06/12 06:06:21;;;;;;;4.28;1.42;;;23.70;54.50;;;;;;5035810;28;20479;-67
2021/06/12 06:08:46;;;;;;;2.58;1.42;;;23.70;54.50;;;;;;5035821;28;20030;-68
2021/06/12 06:11:12;;;;;;;3.92;1.40;;;23.80;54.60;;;;;;5035786;28;20068;-66
2021/06/12 06:13:39;;;;;;;3.28;1.58;;;23.80;54.50;;;;;;5033450;28;20025;-66
2021/06/12 06:16:06;;;;;;;3.90;1.60;;;23.70;54.60;;;;;;5036051;28;20433;-66
2021/06/12 06:18:31;;;;;;;3.15;1.58;;;23.70;54.50;;;;;;5035685;28;20465;-67
2021/06/12 06:20:57;;;;;;;3.67;1.45;;;23.70;54.60;;;;;;5035685;28;20029;-67
2021/06/12 06:23:23;;;;;;;4.47;1.58;;;23.70;54.60;;;;;;5035804;28;20455;-66
2021/06/12 06:25:48;;;;;;;2.63;1.48;;;23.70;54.50;;;;;;5035586;28;20025;-66
2021/06/12 06:28:14;;;;;;;3.03;1.90;;;23.70;54.60;;;;;;5035430;28;20029;-66
2021/06/12 06:30:40;;;;;;;2.92;1.67;;;23.80;54.50;;;;;;5035417;28;20029;-67
2021/06/12 06:33:05;;;;;;;3.25;1.48;;;23.80;54.60;;;;;;5035574;28;20409;-66
2021/06/12 06:35:31;;;;;;;3.90;1.80;;;23.80;54.50;;;;;;5034965;28;20474;-67
2021/06/12 06:37:56;;;;;;;3.72;1.85;;;23.70;54.60;;;;;;5035097;28;20026;-66
2021/06/12 06:40:22;;;;;;;3.95;1.65;;;23.80;54.50;;;;;;5035182;28;20048;-67
2021/06/12 06:42:48;;;;;;;4.18;1.80;;;23.80;54.60;;;;;;5033555;28;20069;-67
2021/06/12 06:45:13;;;;;;;5.22;1.60;;;23.80;54.60;;;;;;5034841;28;20368;-67
2021/06/12 06:47:39;;;;;;;3.35;1.63;;;23.70;54.60;;;;;;5035144;28;20200;-67
2021/06/12 06:50:08;;;;;;;3.53;1.65;;;23.70;54.60;;;;;;5036069;28;20108;-67
2021/06/12 06:52:34;;;;;;;2.83;1.50;;;23.70;54.70;;;;;;5041614;28;20112;-67
2021/06/12 06:54:59;;;;;;;2.85;1.38;;;23.70;54.70;;;;;;5034804;28;20454;-67
2021/06/12 06:57:25;;;;;;;3.20;1.58;;;23.70;54.70;;;;;;5035096;28;20036;-67
2021/06/12 06:59:51;;;;;;;3.42;1.60;;;23.70;54.80;;;;;;5035328;28;20057;-67
2021/06/12 07:02:16;;;;;;;2.78;1.48;;;23.70;54.90;;;;;;5034747;28;20113;-67
2021/06/12 07:04:42;;;;;;;3.35;1.80;;;23.70;54.90;;;;;;5034736;28;20029;-67
2021/06/12 07:07:08;;;;;;;3.90;1.95;;;23.70;55.00;;;;;;5034571;28;20408;-67
2021/06/12 07:09:34;;;;;;;3.95;1.77;;;23.70;54.90;;;;;;5034464;28;20044;-67
2021/06/12 07:12:03;;;;;;;6.22;1.83;;;23.70;55.00;;;;;;5034259;28;20029;-66
2021/06/12 07:14:29;;;;;;;4.07;1.90;;;23.60;55.00;;;;;;5034206;28;20477;-66
2021/06/12 07:16:55;;;;;;;4.93;2.35;;;23.70;55.00;;;;;;5034552;28;20026;-66
2021/06/12 07:19:21;;;;;;;5.40;1.70;;;23.70;55.00;;;;;;5034032;28;20040;-67
2021/06/12 07:21:47;;;;;;;3.70;1.65;;;23.60;55.00;;;;;;5034167;28;20029;-67
2021/06/12 07:24:13;;;;;;;4.47;2.15;;;23.60;55.00;;;;;;5033589;28;20377;-67
2021/06/12 07:26:39;;;;;;;4.63;2.05;;;23.70;55.00;;;;;;5033876;28;20029;-67
2021/06/12 07:29:05;;;;;;;3.03;1.50;;;23.70;55.00;;;;;;5034206;28;20025;-67
2021/06/12 07:31:30;;;;;;;3.70;1.67;;;23.70;55.00;;;;;;5034098;28;20082;-67
2021/06/12 07:33:56;;;;;;;3.83;1.80;;;23.70;55.10;;;;;;5033704;28;20029;-67
2021/06/12 07:36:22;;;;;;;4.25;1.77;;;23.60;55.10;;;;;;5033785;28;20025;-67
2021/06/12 07:38:48;;;;;;;3.50;1.70;;;23.60;55.10;;;;;;5034021;28;20041;-67
2021/06/12 07:41:13;;;;;;;4.70;2.03;;;23.60;55.10;;;;;;5033752;28;20033;-67
2021/06/12 07:43:39;;;;;;;4.30;1.90;;;23.60;55.20;;;;;;5032212;28;20054;-67
2021/06/12 07:46:05;;;;;;;5.90;2.10;;;23.60;55.20;;;;;;5033586;28;20040;-67
2021/06/12 07:48:30;;;;;;;4.78;1.80;;;23.60;55.20;;;;;;5033890;28;20435;-67
2021/06/12 07:50:56;;;;;;;4.00;1.88;;;23.60;55.20;;;;;;5033779;28;20472;-67
2021/06/12 07:53:21;;;;;;;5.53;2.28;;;23.60;55.20;;;;;;5033671;28;20025;-67
2021/06/12 07:55:47;;;;;;;6.00;2.25;;;23.60;55.20;;;;;;5033469;28;20025;-69
2021/06/12 07:58:12;;;;;;;4.55;2.05;;;23.60;55.20;;;;;;5033445;28;20473;-67
2021/06/12 08:00:38;;;;;;;4.82;2.00;;;23.60;55.20;;;;;;5033588;28;20033;-66
2021/06/12 08:03:04;;;;;;;3.22;1.88;;;23.60;55.20;;;;;;5033473;28;20041;-67
2021/06/12 08:05:29;;;;;;;7.07;2.17;;;23.60;55.30;;;;;;5033486;28;20029;-67
2021/06/12 08:07:55;;;;;;;3.85;1.80;;;23.50;55.30;;;;;;5039889;28;20044;-67
2021/06/12 08:10:20;;;;;;;4.30;2.03;;;23.50;55.30;;;;;;5040190;28;20025;-66
2021/06/12 08:12:46;;;;;;;5.30;2.22;;;23.60;55.30;;;;;;5034893;28;20033;-67
2021/06/12 08:15:13;;;;;;;3.55;2.00;;;23.60;55.30;;;;;;5033953;28;20028;-66
2021/06/12 08:17:38;;;;;;;2.97;1.75;;;23.50;55.30;;;;;;5033305;28;20026;-67
2021/06/12 08:20:05;;;;;;;5.22;1.90;;;23.50;55.30;;;;;;5033504;28;20030;-67
2021/06/12 08:22:30;;;;;;;4.15;1.90;;;23.50;55.30;;;;;;5033321;28;20021;-67
2021/06/12 08:24:56;;;;;;;3.53;2.10;;;23.60;55.30;;;;;;5033385;28;20078;-67
2021/06/12 08:27:22;;;;;;;3.88;1.85;;;23.60;55.30;;;;;;5032982;28;20052;-67
2021/06/12 08:29:50;;;;;;;4.72;2.00;;;23.60;55.20;;;;;;5032898;28;20033;-66
2021/06/12 08:32:16;;;;;;;4.22;2.10;;;23.60;55.10;;;;;;5033067;28;20026;-67
2021/06/12 08:34:42;;;;;;;3.85;1.90;;;23.70;55.00;;;;;;5032784;28;20463;-67
2021/06/12 08:37:08;;;;;;;3.80;1.88;;;23.70;54.80;;;;;;5032355;28;20029;-67
2021/06/12 08:39:34;;;;;;;3.67;1.98;;;23.70;54.70;;;;;;5032633;28;20552;-66
2021/06/12 08:42:00;;;;;;;4.85;1.85;;;23.70;54.70;;;;;;5032820;28;20374;-67
2021/06/12 08:44:27;;;;;;;3.55;1.98;;;23.80;54.70;;;;;;5032416;28;20128;-67
2021/06/12 08:46:53;;;;;;;4.35;2.10;;;23.80;54.80;;;;;;5032893;28;20033;-67
2021/06/12 08:49:19;;;;;;;4.55;2.17;;;23.80;54.80;;;;;;5035236;28;20026;-67
2021/06/12 08:51:45;;;;;;;4.88;2.20;;;23.80;54.90;;;;;;5032871;28;20026;-66
2021/06/12 08:54:16;;;;;;;3.63;1.88;;;23.80;54.90;;;;;;5033033;28;20088;-67
2021/06/12 08:56:42;;;;;;;4.60;2.00;;;23.80;54.90;;;;;;5032325;28;20036;-67
2021/06/12 08:59:08;;;;;;;4.50;2.13;;;23.80;54.90;;;;;;5032229;28;20538;-66
2021/06/12 09:01:34;;;;;;;3.63;1.73;;;23.80;54.90;;;;;;5032284;28;20018;-66
2021/06/12 09:03:59;;;;;;;6.95;2.45;;;23.80;54.90;;;;;;5032132;28;20315;-67
2021/06/12 09:06:25;;;;;;;3.95;1.90;;;23.80;54.90;;;;;;5032276;28;20048;-68
2021/06/12 09:08:50;;;;;;;4.97;2.20;;;23.80;54.90;;;;;;5032133;28;20042;-66
2021/06/12 09:11:18;;;;;;;3.30;1.80;;;23.80;55.00;;;;;;5032611;28;20095;-67
2021/06/12 09:13:47;;;;;;;3.40;1.80;;;23.80;55.10;;;;;;5032502;28;20029;-67
2021/06/12 09:16:40;;;;;;;4.43;1.90;;;23.80;55.00;;;;;;5032129;28;20470;-67
2021/06/12 09:19:08;;;;;;;4.32;1.75;;;23.80;55.00;;;;;;5032516;28;20029;-67
2021/06/12 09:21:41;;;;;;;4.28;2.13;;;23.80;55.00;;;;;;5032580;28;20076;-67
2021/06/12 09:24:19;;;;;;;4.97;2.38;;;23.80;55.10;;;;;;5032292;28;20026;-67
2021/06/12 09:26:59;;;;;;;4.32;2.33;;;23.80;55.00;;;;;;5032104;28;20438;-67
2021/06/12 09:29:46;;;;;;;3.63;1.95;;;23.80;55.00;;;;;;5032269;28;20034;-66
2021/06/12 09:32:17;;;;;;;2.78;1.70;;;23.80;55.00;;;;;;5032282;28;20105;-66
2021/06/12 09:34:44;;;;;;;3.60;2.00;;;23.80;55.00;;;;;;5032139;28;20136;-67
2021/06/12 09:37:19;;;;;;;3.70;1.90;;;23.90;55.00;;;;;;5032415;28;20092;-67
2021/06/12 09:40:03;;;;;;;4.40;2.10;;;23.80;55.00;;;;;;5032261;28;20044;-67
2021/06/12 09:42:38;;;;;;;3.60;1.92;;;23.80;55.10;;;;;;5032148;28;20087;-66
2021/06/12 09:45:05;;;;;;;3.42;1.60;;;23.80;55.10;;;;;;5031859;28;20045;-66
2021/06/12 09:47:31;;;;;;;4.05;1.90;;;23.90;55.10;;;;;;5032717;28;20030;-67
2021/06/12 09:50:01;;;;;;;4.13;2.10;;;23.90;55.10;;;;;;5035745;28;20087;-66
2021/06/12 09:52:27;;;;;;;5.00;2.45;;;23.90;55.00;;;;;;5035734;28;20049;-66
2021/06/12 09:54:52;;;;;;;5.85;2.00;;;23.90;55.00;;;;;;5035730;28;20474;-66
2021/06/12 09:57:20;;;;;;;3.95;2.20;;;23.90;55.00;;;;;;5035611;28;20033;-68
2021/06/12 09:59:48;;;;;;;2.97;1.90;;;23.90;55.00;;;;;;5035593;28;20033;-66
2021/06/12 10:02:33;;;;;;;4.60;2.00;;;23.90;54.90;;;;;;5035577;28;20020;-67
2021/06/12 10:04:59;;;;;;;3.70;1.88;;;23.90;55.10;;;;;;5039671;28;20060;-68
2021/06/12 10:07:25;;;;;;;3.85;2.08;;;23.90;55.10;;;;;;5046376;28;20041;-68
2021/06/12 10:09:52;;;;;;;3.85;2.15;;;23.90;55.10;;;;;;5046519;28;20103;-67
2021/06/12 10:12:19;;;;;;;4.25;2.05;;;23.80;55.10;;;;;;5046552;28;20028;-68
2021/06/12 10:14:46;;;;;;;3.83;1.98;;;23.90;55.10;;;;;;5045281;28;20044;-69
2021/06/12 10:17:13;;;;;;;3.92;2.05;;;23.80;55.10;;;;;;5048363;28;20029;-67
2021/06/12 10:19:41;;;;;;;4.38;1.90;;;23.90;55.00;;;;;;5045724;28;20024;-67
2021/06/12 10:22:08;;;;;;;4.55;2.33;;;23.90;54.90;;;;;;5045810;28;20021;-66
2021/06/12 10:24:35;;;;;;;4.32;2.00;;;24.00;54.90;;;;;;5044374;28;20022;-67
2021/06/12 10:27:01;;;;;;;3.97;2.00;;;24.00;54.80;;;;;;5035123;28;20030;-67
2021/06/12 10:29:27;;;;;;;5.00;2.30;;;24.00;54.80;;;;;;5035553;28;20120;-67
2021/06/12 10:31:55;;;;;;;5.20;2.10;;;24.00;54.90;;;;;;5035038;28;20104;-66
2021/06/12 10:34:26;;;;;;;4.32;2.05;;;24.00;54.90;;;;;;5034953;28;20030;-66
2021/06/12 10:36:59;;;;;;;4.10;2.05;;;24.00;54.80;;;;;;5035028;28;20026;-66
2021/06/12 10:39:30;;;;;;;4.38;2.08;;;24.00;54.70;;;;;;5034814;28;20030;-67
2021/06/12 10:42:19;;;;;;;3.53;1.88;;;24.10;54.70;;;;;;5034934;28;20450;-66
2021/06/12 10:44:50;;;;;;;4.63;2.15;;;24.10;54.70;;;;;;5034547;28;20068;-67
2021/06/12 10:47:42;;;;;;;4.75;2.20;;;24.10;54.70;;;;;;5034707;28;20481;-66
2021/06/12 10:50:43;;;;;;;5.03;2.10;;;24.10;54.70;;;;;;5034984;28;20037;-66
2021/06/12 10:53:15;;;;;;;3.97;2.10;;;24.10;54.70;;;;;;5012843;28;20037;-66
2021/06/12 10:55:51;;;;;;;3.13;1.90;;;24.10;54.70;;;;;;5034296;28;20454;-66
2021/06/12 10:58:29;;;;;;;3.72;2.00;;;24.10;54.70;;;;;;5034457;28;20492;-66
2021/06/12 11:01:14;;;;;;;4.35;2.20;;;24.10;54.80;;;;;;5033879;28;20025;-67
2021/06/12 11:04:26;;;;;;;3.47;1.80;;;24.10;54.70;;;;;;5034389;28;20022;-66
2021/06/12 11:09:18;;;;;;;4.60;2.00;;;24.10;54.60;;;;;;5039734;28;20116;-67
2021/06/12 11:11:48;;;;;;;2.80;1.50;;;24.10;54.60;;;;;;5038150;28;20037;-66
2021/06/12 11:14:20;;;;;;;3.70;1.88;;;24.20;54.60;;;;;;5034812;28;20438;-67
2021/06/12 11:17:06;;;;;;;3.90;2.00;;;24.10;54.60;;;;;;5032863;28;20049;-66
2021/06/12 11:19:32;;;;;;;2.67;1.65;;;24.20;54.50;;;;;;5034121;28;20029;-66
2021/06/12 11:22:25;;;;;;;3.47;1.98;;;24.10;54.50;;;;;;5033770;28;20557;-66
2021/06/12 11:25:07;;;;;;;4.32;1.83;;;24.20;54.50;;;;;;5033986;28;20029;-66
2021/06/12 11:27:49;;;;;;;3.80;2.05;;;24.20;54.40;;;;;;5034071;28;20473;-66
2021/06/12 11:30:21;;;;;;;3.72;1.98;;;24.30;54.30;;;;;;5033883;28;20112;-66
2021/06/12 11:32:56;;;;;;;3.63;1.20;;;24.20;54.20;;;;;;5033666;28;20026;-66
2021/06/12 11:35:52;;;;;;;3.67;1.90;;;24.30;54.10;;;;;;5033725;28;20481;-66
2021/06/12 11:38:31;;;;;;;3.20;1.70;;;24.30;54.10;;;;;;5032398;28;20021;-66
2021/06/12 11:41:02;;;;;;;5.20;2.15;;;24.30;54.20;;;;;;5033606;28;20046;-66
2021/06/12 11:43:52;;;;;;;5.07;1.90;;;24.20;54.20;;;;;;5033152;28;20048;-66
2021/06/12 11:46:29;;;;;;;3.22;1.90;;;24.20;54.30;;;;;;5033519;28;20469;-66
2021/06/12 11:48:56;;;;;;;3.65;1.83;;;24.20;54.30;;;;;;5033446;28;20124;-67
2021/06/12 11:51:25;;;;;;;3.33;1.75;;;24.30;54.30;;;;;;5033352;28;20030;-66
2021/06/12 11:54:21;;;;;;;3.53;1.60;;;24.30;54.20;;;;;;5033480;28;20473;-66
2021/06/12 11:56:51;;;;;;;3.58;1.73;;;24.20;54.20;;;;;;5033533;28;20037;-67
2021/06/12 11:59:20;;;;;;;3.78;1.92;;;24.30;54.10;;;;;;5033607;28;20029;-66
2021/06/12 12:01:46;;;;;;;5.07;2.17;;;24.20;54.10;;;;;;5033280;28;20028;-66
2021/06/12 12:04:13;;;;;;;3.22;1.70;;;24.20;54.10;;;;;;5033218;28;20022;-66
2021/06/12 12:06:48;;;;;;;3.38;1.67;;;24.20;54.00;;;;;;5032860;28;20465;-66
2021/06/12 12:09:23;;;;;;;3.10;1.70;;;24.30;54.00;;;;;;5032024;28;20035;-67
2021/06/12 12:11:53;;;;;;;2.75;1.40;;;24.30;53.90;;;;;;5032448;28;20033;-67
2021/06/12 12:14:26;;;;;;;4.45;2.00;;;24.20;53.90;;;;;;5033386;28;20040;-66
2021/06/12 12:16:52;;;;;;;2.97;1.70;;;24.20;53.90;;;;;;5033139;28;20028;-67
2021/06/12 12:19:18;;;;;;;4.53;1.80;;;24.20;54.00;;;;;;5033232;28;20025;-66
2021/06/12 12:21:44;;;;;;;5.40;2.25;;;24.20;54.00;;;;;;5033153;28;20028;-66
2021/06/12 12:24:13;;;;;;;3.97;2.00;;;24.20;54.00;;;;;;5038585;28;20025;-66
2021/06/12 12:26:51;;;;;;;3.92;2.03;;;24.20;54.00;;;;;;5035031;28;20033;-66
2021/06/12 12:29:18;;;;;;;4.25;1.63;;;24.20;53.90;;;;;;5033341;28;20555;-67
2021/06/12 12:31:47;;;;;;;3.60;1.75;;;24.20;53.80;;;;;;5033292;28;20038;-67
2021/06/12 12:34:26;;;;;;;3.80;1.83;;;24.20;53.80;;;;;;5032959;28;20021;-67
2021/06/12 12:36:55;;;;;;;4.13;1.60;;;24.30;53.60;;;;;;5033308;28;20525;-67
2021/06/12 12:39:21;;;;;;;5.43;1.80;;;24.30;53.70;;;;;;5033313;28;20065;-66
2021/06/12 12:41:58;;;;;;;5.03;1.85;;;24.20;53.70;;;;;;5033050;28;20032;-67
2021/06/12 12:44:26;;;;;;;2.80;1.50;;;24.20;53.70;;;;;;5032929;28;20049;-67
2021/06/12 12:46:52;;;;;;;5.18;2.10;;;24.30;53.60;;;;;;5034926;28;20026;-66
2021/06/12 12:49:26;;;;;;;3.75;1.80;;;24.30;53.60;;;;;;5033022;28;20037;-68
2021/06/12 12:51:52;;;;;;;4.95;1.80;;;24.30;53.60;;;;;;5036322;28;20013;-66
2021/06/12 12:54:18;;;;;;;2.97;1.80;;;24.20;53.60;;;;;;5037871;28;20026;-66
2021/06/12 12:56:55;;;;;;;4.07;2.00;;;24.30;53.60;;;;;;5033941;28;20026;-66